New Mount Pleasant, Indiana
Current Conditions -  °F | °C
As of 11:53 PM on Sunday 19 Oct 2014 (Local Time) from KMIE Reporting Station
Clear Clear  
Wind Chill:   Ceiling: Unl
Heat Index:   Visibility: 10mi
Dew Point:   Wind: 8mph
Humidity: 77%   Direction: 230°SW
Pressure: 30.02"   Gusts: NA
Location:  40.4312°N, 85.0058°W
Report Text: KMIE 200353Z 23007KT 10SM CLR 08/04 A3002 RMK AO2 SLP166 T00830044
Loading
Personal Weather Stations






























Interactive Weather Map
Tropical Storm Tracking
New forecast layout! Learn more

10-Day Weather Forecast

Advertisements
Track Severe Weather on mobile